Time;durP1;ratioP1;P1;durP2;ratioP2;P2;SDS_P1;SDS_P2;PMS_P1;PMS_P2;Temp;Humidity;BMP_temperature;BMP_pressure;BME280_temperature;BME280_humidity;BME280_pressure;Samples;Min_cycle;Max_cycle;Signal;HPM_P1;HPM_P2
2022/01/30 00:00:04;;;;;;;;;;;4.10;99.90;4.50;101233.00;;;;335118;29;88375;-86
2022/01/30 00:00:16;;;;;;;;;;;4.00;99.90;4.60;101229.00;;;;334972;29;85574;-86
2022/01/30 00:00:28;;;;;;;;;;;4.10;99.90;4.60;101233.00;;;;337653;28;89059;-86
2022/01/30 00:00:40;;;;;;;;;;;4.00;99.90;4.60;101238.00;;;;335887;28;88048;-86
2022/01/30 00:00:52;;;;;;;;;;;4.10;99.90;4.60;101231.00;;;;335016;29;90917;-86
2022/01/30 00:01:04;;;;;;;;;;;4.10;99.90;4.60;101224.00;;;;337038;28;88999;-86
2022/01/30 00:01:16;;;;;;;;;;;4.10;99.90;4.60;101229.00;;;;337188;28;88492;-86
2022/01/30 00:01:27;;;;;;;;;;;4.10;99.90;4.70;101230.00;;;;337437;28;88790;-86
2022/01/30 00:01:39;;;;;;;;;;;4.10;99.90;4.70;101228.00;;;;334974;29;90346;-86
2022/01/30 00:01:51;;;;;;;;;;;4.10;99.90;4.70;101221.00;;;;333548;29;86976;-86
2022/01/30 00:02:04;;;;;;;;;;;4.10;99.90;4.70;101228.00;;;;336435;28;90033;-86
2022/01/30 00:02:16;;;;;;;;;;;4.10;99.90;4.70;101227.00;;;;334885;29;86243;-86
2022/01/30 00:02:28;;;;;;;;;;;4.10;99.90;4.70;101219.00;;;;336467;28;87308;-85
2022/01/30 00:02:40;;;;;;;;;;;4.10;99.90;4.60;101236.00;;;;336238;28;86937;-86
2022/01/30 00:02:52;;;;;;;;;;;4.10;99.90;4.60;101238.00;;;;337660;28;87582;-86
2022/01/30 00:03:04;;;;;;;;;;;4.10;99.90;4.50;101230.00;;;;334829;29;88501;-86
2022/01/30 00:03:16;;;;;;;;;;;4.10;99.90;4.60;101230.00;;;;336380;28;88467;-86
2022/01/30 00:03:28;;;;;;;;;;;4.10;99.90;4.60;101231.00;;;;336185;28;87057;-86
2022/01/30 00:03:40;;;;;;;;;;;4.10;99.90;4.70;101234.00;;;;337366;28;90856;-86
2022/01/30 00:03:51;;;;;;;;;;;4.10;99.90;4.70;101230.00;;;;335915;28;87433;-86
2022/01/30 00:04:03;;;;;;;;;;;4.10;99.90;4.80;101219.00;;;;335058;29;91274;-86
2022/01/30 00:04:15;;;;;;;;;;;4.10;99.90;4.80;101228.00;;;;336135;28;86084;-86
2022/01/30 00:04:27;;;;;;;;;;;4.10;99.90;4.80;101221.00;;;;335132;29;87558;-86
2022/01/30 00:04:38;;;;;;;;;;;4.10;99.90;4.80;101223.00;;;;336135;28;88531;-86
2022/01/30 00:04:50;;;;;;;;;;;4.10;99.90;4.70;101228.00;;;;336205;28;89326;-86
2022/01/30 00:05:03;;;;;;;;;;;4.10;99.90;4.70;101227.00;;;;336087;28;86904;-86
2022/01/30 00:05:15;;;;;;;;;;;4.10;99.90;4.70;101227.00;;;;336471;28;88268;-86
2022/01/30 00:05:27;;;;;;;;;;;4.10;99.90;4.80;101226.00;;;;336191;28;88174;-86
2022/01/30 00:05:39;;;;;;;;;;;4.10;99.90;4.80;101215.00;;;;336340;28;88478;-86
2022/01/30 00:05:51;;;;;;;;;;;4.10;99.90;4.70;101225.00;;;;337553;28;86860;-86
2022/01/30 00:06:03;;;;;;;;;;;4.10;99.90;4.70;101224.00;;;;335159;29;88186;-86
2022/01/30 00:06:14;;;;;;;;;;;4.10;99.90;4.70;101228.00;;;;334925;29;86090;-86
2022/01/30 00:06:26;;;;;;;;;;;4.10;99.90;4.70;101220.00;;;;335237;29;88038;-86
2022/01/30 00:06:38;;;;;;;;;;;4.10;99.90;4.70;101225.00;;;;337368;28;86917;-85
2022/01/30 00:06:50;;;;;;;;;;;4.10;99.90;4.70;101233.00;;;;338704;28;88714;-86
2022/01/30 00:07:02;;;;;;;;;;;4.10;99.90;4.70;101231.00;;;;334595;29;87685;-86
2022/01/30 00:07:13;;;;;;;;;;;4.10;99.90;4.80;101227.00;;;;334943;29;89144;-86
2022/01/30 00:07:25;;;;;;;;;;;4.10;99.90;4.80;101222.00;;;;337557;28;86128;-86
2022/01/30 00:07:37;;;;;;;;;;;4.10;99.90;4.80;101222.00;;;;336300;28;90959;-86
2022/01/30 00:07:49;;;;;;;;;;;4.10;99.90;4.70;101225.00;;;;336010;28;87115;-87
2022/01/30 00:08:01;;;;;;;;;;;4.10;99.90;4.70;101229.00;;;;335205;29;88472;-86
2022/01/30 00:08:13;;;;;;;;;;;4.20;99.90;4.70;101235.00;;;;338850;28;86932;-86
2022/01/30 00:08:25;;;;;;;;;;;4.20;99.90;4.80;101239.00;;;;337628;28;90651;-86
2022/01/30 00:08:36;;;;;;;;;;;4.20;99.90;4.80;101233.00;;;;336210;28;87749;-86
2022/01/30 00:08:48;;;;;;;;;;;4.20;99.90;4.70;101226.00;;;;336445;28;87322;-86
2022/01/30 00:09:00;;;;;;;;;;;4.20;99.90;4.70;101228.00;;;;337185;28;87547;-86
2022/01/30 00:09:21;;;;;;;;;;;4.20;99.90;4.70;101228.00;;;;337671;28;90147;-86
2022/01/30 00:09:32;;;;;;;;;;;4.20;99.90;4.60;101238.00;;;;334857;29;88470;-86
2022/01/30 00:09:45;;;;;;;;;;;4.10;99.90;4.60;101227.00;;;;334551;29;90789;-86
2022/01/30 00:09:57;;;;;;;;;;;4.10;99.90;4.60;101235.00;;;;333489;29;86862;-86
2022/01/30 00:10:12;;;;;;;;;;;4.10;99.90;4.60;101230.00;;;;337611;28;90833;-86
2022/01/30 00:10:23;;;;;;;;;;;4.10;99.90;4.60;101241.00;;;;336184;28;86109;-86
2022/01/30 00:10:40;;;;;;;;;;;4.10;99.90;4.60;101232.00;;;;336455;28;90885;-86
2022/01/30 00:10:58;;;;;;;;;;;4.10;99.90;4.60;101220.00;;;;337427;28;87034;-86
2022/01/30 00:11:16;;;;;;;;;;;4.10;99.90;4.60;101226.00;;;;339019;28;88090;-86
2022/01/30 00:11:32;;;;;;;;;;;4.10;99.90;4.60;101228.00;;;;334914;29;85992;-85
2022/01/30 00:11:49;;;;;;;;;;;4.10;99.90;4.60;101223.00;;;;336243;28;90890;-86
2022/01/30 00:12:04;;;;;;;;;;;4.10;99.90;4.70;101225.00;;;;336193;28;86042;-86
2022/01/30 00:12:19;;;;;;;;;;;4.10;99.90;4.70;101232.00;;;;337653;28;88394;-86
2022/01/30 00:12:42;;;;;;;;;;;4.10;99.90;4.70;101228.00;;;;337247;28;86795;-86
2022/01/30 00:12:57;;;;;;;;;;;4.10;99.90;4.60;101227.00;;;;338834;28;89700;-86
2022/01/30 00:13:13;;;;;;;;;;;4.10;99.90;4.60;101229.00;;;;340007;28;86278;-86
2022/01/30 00:13:27;;;;;;;;;;;4.10;99.90;4.60;101225.00;;;;337590;28;89899;-86
2022/01/30 00:13:38;;;;;;;;;;;4.10;99.90;4.60;101220.00;;;;338943;28;86851;-86
2022/01/30 00:13:50;;;;;;;;;;;4.10;99.90;4.60;101229.00;;;;338785;28;89661;-86
2022/01/30 00:14:04;;;;;;;;;;;4.10;99.90;4.60;101234.00;;;;337494;28;87366;-86
2022/01/30 00:14:18;;;;;;;;;;;4.10;99.90;4.60;101224.00;;;;336423;28;88249;-86
2022/01/30 00:14:34;;;;;;;;;;;4.10;99.90;4.60;101220.00;;;;338733;28;87131;-86
2022/01/30 00:14:52;;;;;;;;;;;4.10;99.90;4.50;101225.00;;;;336451;28;91967;-86
2022/01/30 00:15:04;;;;;;;;;;;4.10;99.90;4.60;101221.00;;;;334808;29;87090;-86
2022/01/30 00:15:17;;;;;;;;;;;4.10;99.90;4.70;101224.00;;;;336495;28;88074;-86
2022/01/30 00:15:53;;;;;;;;;;;4.10;99.90;4.60;101227.00;;;;334875;29;87775;-86
2022/01/30 00:16:08;;;;;;;;;;;4.10;99.90;4.60;101223.00;;;;334598;29;88674;-86
2022/01/30 00:16:23;;;;;;;;;;;4.10;99.90;4.60;101227.00;;;;337759;28;88521;-86
2022/01/30 00:16:36;;;;;;;;;;;4.10;99.90;4.60;101225.00;;;;334864;29;87106;-86
2022/01/30 00:16:57;;;;;;;;;;;4.10;99.90;4.60;101223.00;;;;335948;28;90085;-87
2022/01/30 00:17:18;;;;;;;;;;;4.10;99.90;4.70;101218.00;;;;338927;28;85999;-86
2022/01/30 00:17:38;;;;;;;;;;;4.10;99.90;4.70;101222.00;;;;337694;28;88411;-85
2022/01/30 00:18:05;;;;;;;;;;;4.10;99.90;4.70;101223.00;;;;337503;28;87077;-86
2022/01/30 00:19:01;;;;;;;;;;;4.10;99.90;4.70;101220.00;;;;334889;29;87354;-86
2022/01/30 00:19:34;;;;;;;;;;;4.10;99.90;4.60;101216.00;;;;333352;29;88036;-86
2022/01/30 00:19:54;;;;;;;;;;;4.10;99.90;4.60;101218.00;;;;333344;29;89703;-86
2022/01/30 00:20:12;;;;;;;;;;;4.10;99.90;4.70;101218.00;;;;334870;29;86924;-86
2022/01/30 00:20:26;;;;;;;;;;;4.10;99.90;4.70;101221.00;;;;338962;28;88410;-86
2022/01/30 00:20:41;;;;;;;;;;;4.10;99.90;4.70;101214.00;;;;337573;28;86660;-87
2022/01/30 00:21:05;;;;;;;;;;;4.10;99.90;4.70;101213.00;;;;336380;28;89330;-86
2022/01/30 00:21:43;;;;;;;;;;;4.10;99.90;4.70;101215.00;;;;337717;28;88592;-86
2022/01/30 00:22:12;;;;;;;;;;;4.10;99.90;4.70;101205.00;;;;337181;28;88740;-86
2022/01/30 00:22:41;;;;;;;;;;;4.10;99.90;4.60;101214.00;;;;336376;28;87187;-86
2022/01/30 00:23:09;;;;;;;;;;;4.10;99.90;4.60;101217.00;;;;334853;29;86896;-86
2022/01/30 00:23:27;;;;;;;;;;;4.10;99.90;4.60;101220.00;;;;335010;29;90937;-86
2022/01/30 00:23:47;;;;;;;;;;;4.10;99.90;4.50;101219.00;;;;336101;28;87991;-86
2022/01/30 00:24:19;;;;;;;;;;;4.10;99.90;4.60;101213.00;;;;334909;29;86966;-86
2022/01/30 00:24:46;;;;;;;;;;;4.10;99.90;4.60;101222.00;;;;336327;28;88407;-85
2022/01/30 00:25:02;;;;;;;;;;;4.10;99.90;4.50;101216.00;;;;335966;28;86862;-86
2022/01/30 00:25:19;;;;;;;;;;;4.10;99.90;4.60;101217.00;;;;336252;28;90218;-86
2022/01/30 00:25:43;;;;;;;;;;;4.00;99.90;4.60;101211.00;;;;338595;28;88429;-86
2022/01/30 00:25:57;;;;;;;;;;;4.00;99.90;4.70;101210.00;;;;338737;28;90735;-86
2022/01/30 00:26:09;;;;;;;;;;;4.10;99.90;4.70;101215.00;;;;337597;28;86758;-86
2022/01/30 00:26:27;;;;;;;;;;;4.00;99.90;4.70;101212.00;;;;337646;28;91297;-86
2022/01/30 00:26:41;;;;;;;;;;;4.10;99.90;4.70;101214.00;;;;338712;28;88447;-86
2022/01/30 00:26:52;;;;;;;;;;;4.10;99.90;4.70;101214.00;;;;340359;28;90846;-86
2022/01/30 00:27:06;;;;;;;;;;;4.10;99.90;4.80;101215.00;;;;337358;28;88418;-86
2022/01/30 00:27:27;;;;;;;;;;;4.10;99.90;4.80;101215.00;;;;337790;28;88262;-86
2022/01/30 00:28:14;;;;;;;;;;;4.10;99.90;4.80;101221.00;;;;338336;28;87021;-86
2022/01/30 00:28:18;;;;;;;;;;;4.10;99.90;4.90;101217.00;;;;338803;28;88302;-86
2022/01/30 00:28:32;;;;;;;;;;;4.10;99.90;4.90;101215.00;;;;341469;28;87531;-86
2022/01/30 00:28:44;;;;;;;;;;;4.20;99.90;4.90;101217.00;;;;340322;28;90069;-86
2022/01/30 00:28:56;;;;;;;;;;;4.20;99.90;4.90;101207.00;;;;340191;28;87934;-86
2022/01/30 00:29:07;;;;;;;;;;;4.20;99.90;4.90;101205.00;;;;341693;28;91093;-86
2022/01/30 00:29:19;;;;;;;;;;;4.20;99.90;4.90;101210.00;;;;341517;28;86939;-86
2022/01/30 00:29:31;;;;;;;;;;;4.20;99.90;4.90;101220.00;;;;344429;28;91550;-86
2022/01/30 00:29:43;;;;;;;;;;;4.20;99.90;4.90;101218.00;;;;344182;28;86952;-86
2022/01/30 00:29:55;;;;;;;;;;;4.20;99.90;4.80;101212.00;;;;344476;28;90718;-86
2022/01/30 00:30:09;;;;;;;;;;;4.20;99.90;4.80;101214.00;;;;345444;28;88292;-86
2022/01/30 00:30:20;;;;;;;;;;;4.20;99.90;4.80;101212.00;;;;344318;28;90766;-86
2022/01/30 00:30:35;;;;;;;;;;;4.20;99.90;4.90;101205.00;;;;341288;28;88729;-86
2022/01/30 00:30:47;;;;;;;;;;;4.20;99.90;4.90;101213.00;;;;342375;28;90779;-86
2022/01/30 00:30:59;;;;;;;;;;;4.20;99.90;4.90;101210.00;;;;341410;28;88599;-86
2022/01/30 00:31:13;;;;;;;;;;;4.20;99.90;4.90;101211.00;;;;341676;28;90188;-87
2022/01/30 00:31:26;;;;;;;;;;;4.20;99.90;4.90;101212.00;;;;343017;28;85886;-86
2022/01/30 00:31:58;;;;;;;;;;;4.20;99.90;5.00;101214.00;;;;341750;28;91346;-86
2022/01/30 00:32:30;;;;;;;;;;;4.30;99.90;5.00;101219.00;;;;338667;28;87807;-86
2022/01/30 00:33:02;;;;;;;;;;;4.30;99.90;4.90;101213.00;;;;338784;28;90975;-86
2022/01/30 00:33:16;;;;;;;;;;;4.30;99.90;4.90;101205.00;;;;340250;28;86905;-86
2022/01/30 00:33:28;;;;;;;;;;;4.30;99.90;4.90;101214.00;;;;340373;28;91201;-86
2022/01/30 00:33:40;;;;;;;;;;;4.30;99.90;4.90;101211.00;;;;341113;28;91262;-86
2022/01/30 00:33:52;;;;;;;;;;;4.30;99.90;4.90;101215.00;;;;342389;28;92967;-86
2022/01/30 00:34:04;;;;;;;;;;;4.30;99.90;4.90;101217.00;;;;339934;28;91884;-86
2022/01/30 00:34:16;;;;;;;;;;;4.30;99.90;4.90;101203.00;;;;341070;28;93420;-86
2022/01/30 00:34:27;;;;;;;;;;;4.30;99.90;4.80;101204.00;;;;340073;28;91928;-86
2022/01/30 00:34:39;;;;;;;;;;;4.30;99.90;4.80;101218.00;;;;340085;28;95522;-85
2022/01/30 00:34:51;;;;;;;;;;;4.30;99.90;4.80;101206.00;;;;339955;28;92000;-85
2022/01/30 00:35:03;;;;;;;;;;;4.30;99.90;4.80;101208.00;;;;342629;28;96534;-86
2022/01/30 00:35:15;;;;;;;;;;;4.30;99.90;4.80;101208.00;;;;342634;28;91772;-86
2022/01/30 00:35:27;;;;;;;;;;;4.30;99.90;4.80;101213.00;;;;342965;28;96483;-86
2022/01/30 00:35:39;;;;;;;;;;;4.30;99.90;4.80;101216.00;;;;342691;28;91034;-86
2022/01/30 00:35:51;;;;;;;;;;;4.30;99.90;4.80;101206.00;;;;340176;28;95370;-86
2022/01/30 00:36:03;;;;;;;;;;;4.30;99.90;4.70;101203.00;;;;341310;28;91936;-86
2022/01/30 00:36:15;;;;;;;;;;;4.30;99.90;4.70;101196.00;;;;342982;28;93005;-86
2022/01/30 00:36:26;;;;;;;;;;;4.30;99.90;4.70;101212.00;;;;341308;28;91795;-86
2022/01/30 00:36:38;;;;;;;;;;;4.30;99.90;4.80;101208.00;;;;340229;28;96234;-86
2022/01/30 00:36:50;;;;;;;;;;;4.20;99.90;4.90;101200.00;;;;339216;28;91972;-86
2022/01/30 00:37:03;;;;;;;;;;;4.30;99.90;4.90;101202.00;;;;338826;28;95418;-86
2022/01/30 00:37:15;;;;;;;;;;;4.30;99.90;4.80;101201.00;;;;339963;28;91166;-85
2022/01/30 00:37:26;;;;;;;;;;;4.30;99.90;4.80;101204.00;;;;340297;28;93579;-86
2022/01/30 00:37:41;;;;;;;;;;;4.30;99.90;4.80;101207.00;;;;339810;28;91268;-85
2022/01/30 00:38:16;;;;;;;;;;;4.30;99.90;4.90;101202.00;;;;340443;28;95212;-86
2022/01/30 00:38:28;;;;;;;;;;;4.30;99.90;4.80;101201.00;;;;341639;28;91945;-86
2022/01/30 00:38:40;;;;;;;;;;;4.30;99.90;4.90;101209.00;;;;343268;28;93923;-86
2022/01/30 00:38:52;;;;;;;;;;;4.30;99.90;4.90;101209.00;;;;344287;28;91257;-86
2022/01/30 00:39:03;;;;;;;;;;;4.30;99.90;5.00;101201.00;;;;341784;28;93887;-85
2022/01/30 00:39:15;;;;;;;;;;;4.30;99.90;5.00;101208.00;;;;341523;28;92480;-87
2022/01/30 00:39:27;;;;;;;;;;;4.30;99.90;4.90;101209.00;;;;340595;28;93147;-86
2022/01/30 00:39:39;;;;;;;;;;;4.30;99.90;5.00;101204.00;;;;339966;28;91960;-86
2022/01/30 00:39:51;;;;;;;;;;;4.30;99.90;5.00;101211.00;;;;341473;28;95686;-86
2022/01/30 00:40:03;;;;;;;;;;;4.30;99.90;5.00;101207.00;;;;341584;28;91246;-86
2022/01/30 00:40:15;;;;;;;;;;;4.30;99.90;5.00;101210.00;;;;341775;28;92776;-86
2022/01/30 00:40:27;;;;;;;;;;;4.30;99.90;5.00;101208.00;;;;341604;28;92065;-86
2022/01/30 00:40:39;;;;;;;;;;;4.30;99.90;5.00;101206.00;;;;340439;28;95755;-86
2022/01/30 00:40:51;;;;;;;;;;;4.40;99.90;5.00;101203.00;;;;338695;28;92082;-86
2022/01/30 00:41:04;;;;;;;;;;;4.40;99.90;5.00;101202.00;;;;340272;28;96772;-86
2022/01/30 00:41:16;;;;;;;;;;;4.40;99.90;5.00;101205.00;;;;340138;28;92078;-87
2022/01/30 00:41:28;;;;;;;;;;;4.40;99.90;5.00;101207.00;;;;340518;28;95690;-86
2022/01/30 00:41:40;;;;;;;;;;;4.40;99.90;5.00;101201.00;;;;340277;28;91830;-86
2022/01/30 00:41:52;;;;;;;;;;;4.40;99.90;5.00;101207.00;;;;340477;28;93656;-86
2022/01/30 00:42:04;;;;;;;;;;;4.40;99.90;5.00;101211.00;;;;341676;28;91026;-86
2022/01/30 00:42:17;;;;;;;;;;;4.40;99.90;5.10;101203.00;;;;339143;28;95118;-86
2022/01/30 00:42:29;;;;;;;;;;;4.40;99.90;5.10;101201.00;;;;338825;28;92129;-86
2022/01/30 00:42:42;;;;;;;;;;;4.40;99.90;5.10;101196.00;;;;341823;28;95066;-86
2022/01/30 00:42:54;;;;;;;;;;;4.40;99.90;5.10;101203.00;;;;342922;28;92637;-86
2022/01/30 00:43:06;;;;;;;;;;;4.40;99.90;5.10;101202.00;;;;341768;28;94969;-86
2022/01/30 00:43:18;;;;;;;;;;;4.40;99.90;5.00;101204.00;;;;342577;28;92139;-86
2022/01/30 00:43:30;;;;;;;;;;;4.50;99.90;4.90;101200.00;;;;343207;28;95888;-86
2022/01/30 00:43:42;;;;;;;;;;;4.40;99.90;4.90;101208.00;;;;342837;28;91942;-86
2022/01/30 00:43:54;;;;;;;;;;;4.40;99.90;4.90;101205.00;;;;340400;28;94852;-86
2022/01/30 00:44:06;;;;;;;;;;;4.40;99.90;5.00;101202.00;;;;341502;28;90420;-86
2022/01/30 00:44:18;;;;;;;;;;;4.40;99.90;5.00;101201.00;;;;341503;28;96323;-86
2022/01/30 00:44:30;;;;;;;;;;;4.40;99.90;5.00;101201.00;;;;341653;28;91939;-86
2022/01/30 00:44:41;;;;;;;;;;;4.40;99.90;5.00;101200.00;;;;340494;28;95784;-87
2022/01/30 00:44:53;;;;;;;;;;;4.40;99.90;5.00;101198.00;;;;340264;28;91938;-86
2022/01/30 00:45:06;;;;;;;;;;;4.40;99.90;5.00;101204.00;;;;341824;28;93419;-86
2022/01/30 00:45:17;;;;;;;;;;;4.50;99.90;5.10;101193.00;;;;340102;28;92094;-86
2022/01/30 00:45:29;;;;;;;;;;;4.40;99.90;5.10;101196.00;;;;339065;28;95670;-85
2022/01/30 00:45:41;;;;;;;;;;;4.40;99.90;5.20;101195.00;;;;340277;28;92538;-86
2022/01/30 00:45:53;;;;;;;;;;;4.40;99.90;5.10;101198.00;;;;343224;28;95316;-86
2022/01/30 00:46:05;;;;;;;;;;;4.50;99.90;5.00;101198.00;;;;341695;28;91131;-86
2022/01/30 00:46:17;;;;;;;;;;;4.50;99.90;5.10;101193.00;;;;341426;28;94988;-85
2022/01/30 00:46:29;;;;;;;;;;;4.50;99.90;5.10;101207.00;;;;340226;28;91990;-85
2022/01/30 00:46:41;;;;;;;;;;;4.50;99.90;5.00;101197.00;;;;339141;28;96234;-86
2022/01/30 00:46:55;;;;;;;;;;;4.50;99.90;5.10;101201.00;;;;341425;28;92001;-85
2022/01/30 00:47:12;;;;;;;;;;;4.50;99.90;5.10;101190.00;;;;340585;28;93520;-86
2022/01/30 00:47:24;;;;;;;;;;;4.50;99.90;5.10;101194.00;;;;340089;28;91857;-86
2022/01/30 00:47:36;;;;;;;;;;;4.50;99.90;5.10;101198.00;;;;340427;28;92447;-86
2022/01/30 00:47:47;;;;;;;;;;;4.50;99.90;5.10;101193.00;;;;338932;28;92112;-86
2022/01/30 00:47:59;;;;;;;;;;;4.50;99.90;5.00;101188.00;;;;339156;28;96383;-86
2022/01/30 00:48:11;;;;;;;;;;;4.50;99.90;5.00;101196.00;;;;338925;28;90454;-86
2022/01/30 00:48:23;;;;;;;;;;;4.50;99.90;4.90;101191.00;;;;340367;28;94801;-85
2022/01/30 00:48:35;;;;;;;;;;;4.50;99.90;4.90;101198.00;;;;338844;28;91995;-85
2022/01/30 00:48:47;;;;;;;;;;;4.50;99.90;5.00;101203.00;;;;341077;28;96548;-86
2022/01/30 00:48:58;;;;;;;;;;;4.50;99.90;5.00;101190.00;;;;340770;28;92213;-86
2022/01/30 00:49:10;;;;;;;;;;;4.50;99.90;5.00;101196.00;;;;341685;28;95278;-85
2022/01/30 00:49:22;;;;;;;;;;;4.50;99.90;5.10;101188.00;;;;340208;28;92088;-86
2022/01/30 00:49:34;;;;;;;;;;;4.50;99.90;5.10;101192.00;;;;341653;28;95393;-86
2022/01/30 00:49:46;;;;;;;;;;;4.50;99.90;5.10;101185.00;;;;340680;28;92027;-86
2022/01/30 00:49:57;;;;;;;;;;;4.50;99.90;5.00;101192.00;;;;339179;28;93590;-86
2022/01/30 00:50:09;;;;;;;;;;;4.50;99.90;4.90;101175.00;;;;338956;28;90378;-86
2022/01/30 00:50:21;;;;;;;;;;;4.50;99.90;4.90;101194.00;;;;341801;28;92507;-85
2022/01/30 00:50:33;;;;;;;;;;;4.50;99.90;4.90;101185.00;;;;341621;28;91883;-86
2022/01/30 00:50:45;;;;;;;;;;;4.50;99.90;5.00;101197.00;;;;340568;28;93414;-85
2022/01/30 00:50:57;;;;;;;;;;;4.50;99.90;5.10;101189.00;;;;341545;28;92195;-86
2022/01/30 00:51:08;;;;;;;;;;;4.50;99.90;5.00;101195.00;;;;343259;28;95400;-86
2022/01/30 00:51:20;;;;;;;;;;;4.50;99.90;5.10;101189.00;;;;342870;28;91964;-86
2022/01/30 00:51:34;;;;;;;;;;;4.50;99.90;5.10;101191.00;;;;344492;28;95752;-86
2022/01/30 00:51:46;;;;;;;;;;;4.50;99.90;5.10;101181.00;;;;342185;28;91907;-85
2022/01/30 00:51:57;;;;;;;;;;;4.50;99.90;5.10;101189.00;;;;343140;28;95798;-85
2022/01/30 00:52:10;;;;;;;;;;;4.50;99.90;5.20;101189.00;;;;345599;28;90437;-86
2022/01/30 00:52:22;;;;;;;;;;;4.50;99.90;5.10;101188.00;;;;341683;28;95457;-86
2022/01/30 00:52:34;;;;;;;;;;;4.50;99.90;5.00;101191.00;;;;344222;28;92048;-86
2022/01/30 00:52:50;;;;;;;;;;;4.50;99.90;5.10;101189.00;;;;342489;28;93449;-86
2022/01/30 00:53:02;;;;;;;;;;;4.50;99.90;5.10;101189.00;;;;340212;28;92130;-86
2022/01/30 00:53:15;;;;;;;;;;;4.50;99.90;5.20;101183.00;;;;341619;28;95710;-85
2022/01/30 00:53:26;;;;;;;;;;;4.50;99.90;5.20;101192.00;;;;338852;28;91033;-86
2022/01/30 00:53:38;;;;;;;;;;;4.50;99.90;5.10;101181.00;;;;340437;28;93787;-85
2022/01/30 00:53:50;;;;;;;;;;;4.50;99.90;5.10;101187.00;;;;341587;28;91001;-86
2022/01/30 00:54:01;;;;;;;;;;;4.60;99.90;5.00;101180.00;;;;341925;28;93616;-86
2022/01/30 00:54:13;;;;;;;;;;;4.60;99.90;5.00;101188.00;;;;342985;28;91174;-86
2022/01/30 00:54:25;;;;;;;;;;;4.50;99.90;5.10;101183.00;;;;344455;28;93038;-86
2022/01/30 00:54:37;;;;;;;;;;;4.50;99.90;5.00;101184.00;;;;341492;28;92006;-86
2022/01/30 00:54:49;;;;;;;;;;;4.50;99.90;4.90;101180.00;;;;340844;28;99971;-86
2022/01/30 00:55:01;;;;;;;;;;;4.50;99.90;4.90;101187.00;;;;341318;28;92083;-86
2022/01/30 00:55:12;;;;;;;;;;;4.50;99.90;4.90;101179.00;;;;342172;28;95587;-86
2022/01/30 00:55:25;;;;;;;;;;;4.50;99.90;4.90;101183.00;;;;342635;28;91960;-86
2022/01/30 00:55:37;;;;;;;;;;;4.50;99.90;4.90;101183.00;;;;343058;28;94517;-87
2022/01/30 00:55:49;;;;;;;;;;;4.50;99.90;4.90;101182.00;;;;342715;28;91922;-86
2022/01/30 00:56:00;;;;;;;;;;;4.50;99.90;4.90;101188.00;;;;341747;28;95730;-86
2022/01/30 00:56:12;;;;;;;;;;;4.50;99.90;5.00;101190.00;;;;341589;28;91212;-86
2022/01/30 00:56:24;;;;;;;;;;;4.40;99.90;5.10;101187.00;;;;341720;28;95387;-86
2022/01/30 00:56:35;;;;;;;;;;;4.50;99.90;5.00;101186.00;;;;340312;28;92008;-86
2022/01/30 00:56:47;;;;;;;;;;;4.50;99.90;5.00;101186.00;;;;343166;28;92661;-86
2022/01/30 00:56:59;;;;;;;;;;;4.50;99.90;5.00;101189.00;;;;341571;28;91890;-86
2022/01/30 00:57:11;;;;;;;;;;;4.50;99.90;4.90;101177.00;;;;341764;28;93671;-86
2022/01/30 00:57:22;;;;;;;;;;;4.50;99.90;5.00;101184.00;;;;340245;28;91177;-86
2022/01/30 00:57:34;;;;;;;;;;;4.50;99.90;5.00;101182.00;;;;342898;28;93829;-86
2022/01/30 00:57:46;;;;;;;;;;;4.50;99.90;5.00;101183.00;;;;341831;28;92160;-86
2022/01/30 00:57:58;;;;;;;;;;;4.50;99.90;5.00;101184.00;;;;342264;28;95946;-86
2022/01/30 00:58:10;;;;;;;;;;;4.50;99.90;4.90;101182.00;;;;342772;28;91067;-86
2022/01/30 00:58:22;;;;;;;;;;;4.50;99.90;4.80;101184.00;;;;343027;28;95678;-86
2022/01/30 00:58:33;;;;;;;;;;;4.40;99.90;4.80;101179.00;;;;341534;28;92092;-86
2022/01/30 00:58:45;;;;;;;;;;;4.40;99.90;4.90;101180.00;;;;341042;28;92765;-86
2022/01/30 00:58:57;;;;;;;;;;;4.40;99.90;5.00;101188.00;;;;342992;28;91834;-86
2022/01/30 00:59:09;;;;;;;;;;;4.40;99.90;5.00;101182.00;;;;341743;28;95074;-86
2022/01/30 00:59:20;;;;;;;;;;;4.40;99.90;5.00;101183.00;;;;341565;28;92033;-86
2022/01/30 00:59:32;;;;;;;;;;;4.50;99.90;5.00;101177.00;;;;343253;28;93405;-85
2022/01/30 00:59:44;;;;;;;;;;;4.50;99.90;5.00;101187.00;;;;342729;28;91991;-86
2022/01/30 00:59:56;;;;;;;;;;;4.40;99.90;5.00;101176.00;;;;341793;28;96073;-86
2022/01/30 01:00:08;;;;;;;;;;;4.40;99.90;5.10;101173.00;;;;340175;28;90426;-86
2022/01/30 01:00:20;;;;;;;;;;;4.50;99.90;5.10;101177.00;;;;341690;28;92470;-86
2022/01/30 01:00:32;;;;;;;;;;;4.50;99.90;5.10;101179.00;;;;341469;28;91963;-86
2022/01/30 01:00:44;;;;;;;;;;;4.50;99.90;5.10;101174.00;;;;341919;28;96950;-86
2022/01/30 01:00:56;;;;;;;;;;;4.50;99.90;5.00;101180.00;;;;339182;28;91192;-86
2022/01/30 01:01:09;;;;;;;;;;;4.50;99.90;5.10;101174.00;;;;340372;28;95281;-86
2022/01/30 01:01:21;;;;;;;;;;;4.50;99.90;5.10;101173.00;;;;342880;28;91885;-86
2022/01/30 01:01:33;;;;;;;;;;;4.50;99.90;5.10;101168.00;;;;341784;28;94649;-86
2022/01/30 01:01:45;;;;;;;;;;;4.50;99.90;5.10;101172.00;;;;341365;28;91976;-86
2022/01/30 01:01:57;;;;;;;;;;;4.50;99.90;5.10;101164.00;;;;340520;28;93159;-86
2022/01/30 01:02:09;;;;;;;;;;;4.50;99.90;5.10;101167.00;;;;340300;28;91252;-86
2022/01/30 01:02:21;;;;;;;;;;;4.50;99.90;5.10;101176.00;;;;340392;28;95681;-85
2022/01/30 01:02:33;;;;;;;;;;;4.50;99.90;5.10;101170.00;;;;340098;28;92034;-86
2022/01/30 01:02:45;;;;;;;;;;;4.50;99.90;5.00;101175.00;;;;341714;28;96355;-85
2022/01/30 01:02:57;;;;;;;;;;;4.50;99.90;5.10;101164.00;;;;341549;28;92027;-86
2022/01/30 01:03:09;;;;;;;;;;;4.50;99.90;5.10;101170.00;;;;341679;28;96433;-86
2022/01/30 01:03:21;;;;;;;;;;;4.50;99.90;5.10;101167.00;;;;340122;28;91972;-86
2022/01/30 01:03:33;;;;;;;;;;;4.50;99.90;5.00;101167.00;;;;341546;28;94788;-86
2022/01/30 01:03:45;;;;;;;;;;;4.50;99.90;5.00;101167.00;;;;339777;28;92038;-86
2022/01/30 01:03:56;;;;;;;;;;;4.50;99.90;5.10;101166.00;;;;342670;28;93090;-86
2022/01/30 01:04:08;;;;;;;;;;;4.50;99.90;5.00;101171.00;;;;343018;28;91245;-86
2022/01/30 01:04:20;;;;;;;;;;;4.50;99.90;5.10;101164.00;;;;341442;28;93150;-85
2022/01/30 01:04:31;;;;;;;;;;;4.50;99.90;5.10;101167.00;;;;340237;28;92035;-86
2022/01/30 01:04:44;;;;;;;;;;;4.50;99.90;5.10;101171.00;;;;340701;28;94627;-86
2022/01/30 01:04:58;;;;;;;;;;;4.50;99.90;5.20;101157.00;;;;342998;28;91891;-86
2022/01/30 01:05:10;;;;;;;;;;;4.60;99.90;5.20;101161.00;;;;340359;28;94757;-86
2022/01/30 01:05:22;;;;;;;;;;;4.60;99.90;5.20;101169.00;;;;342837;28;91988;-86
2022/01/30 01:05:35;;;;;;;;;;;4.60;99.90;5.20;101168.00;;;;340355;28;95843;-86
2022/01/30 01:05:48;;;;;;;;;;;4.60;99.90;5.10;101168.00;;;;338850;28;92074;-86
2022/01/30 01:06:02;;;;;;;;;;;4.60;99.90;5.00;101167.00;;;;340457;28;93452;-86
2022/01/30 01:06:14;;;;;;;;;;;4.60;99.90;5.00;101172.00;;;;338773;28;91383;-86
2022/01/30 01:06:26;;;;;;;;;;;4.60;99.90;4.90;101163.00;;;;340421;28;93141;-86
2022/01/30 01:06:38;;;;;;;;;;;4.60;99.90;5.00;101171.00;;;;341601;28;91953;-86
2022/01/30 01:06:50;;;;;;;;;;;4.50;99.90;5.00;101163.00;;;;340042;28;93517;-86
2022/01/30 01:07:02;;;;;;;;;;;4.50;99.90;5.00;101166.00;;;;341363;28;92064;-86
2022/01/30 01:07:19;;;;;;;;;;;4.50;99.90;5.00;101161.00;;;;341641;28;94675;-85
2022/01/30 01:07:35;;;;;;;;;;;4.50;99.90;5.10;101167.00;;;;340279;28;91841;-86
2022/01/30 01:07:48;;;;;;;;;;;4.50;99.90;5.10;101165.00;;;;340924;28;96766;-86
2022/01/30 01:08:09;;;;;;;;;;;4.50;99.90;5.00;101164.00;;;;340128;28;91863;-86
2022/01/30 01:08:33;;;;;;;;;;;4.50;99.90;5.00;101163.00;;;;341733;28;95792;-86
2022/01/30 01:08:57;;;;;;;;;;;4.50;99.90;5.00;101165.00;;;;342858;28;91282;-86
2022/01/30 01:09:11;;;;;;;;;;;4.50;99.90;5.00;101164.00;;;;343157;28;91949;-86
2022/01/30 01:09:30;;;;;;;;;;;4.50;99.90;5.10;101156.00;;;;343013;28;91815;-86
2022/01/30 01:09:48;;;;;;;;;;;4.50;99.90;5.00;101163.00;;;;340009;28;93505;-86
2022/01/30 01:10:14;;;;;;;;;;;4.50;99.90;5.10;101161.00;;;;340435;28;92013;-86